Time;durP1;ratioP1;P1;durP2;ratioP2;P2;SDS_P1;SDS_P2;PMS_P1;PMS_P2;Temp;Humidity;BMP_temperature;BMP_pressure;BME280_temperature;BME280_humidity;BME280_pressure;Samples;Min_cycle;Max_cycle;Signal;HPM_P1;HPM_P2
2022/12/19 00:00:06;;;;;;;;;;;;;;;25.35;39.99;95087.22;5008642;28;7248;-62
2022/12/19 00:02:32;;;;;;;;;;;;;;;25.36;40.60;95088.72;5005193;28;7456;-62
2022/12/19 00:04:58;;;;;;;;;;;;;;;25.36;40.21;95085.97;4990757;28;7806;-62
2022/12/19 00:07:26;;;;;;;;;;;;;;;25.35;40.50;95088.00;4993094;28;7267;-62
2022/12/19 00:09:52;;;;;;;;;;;;;;;25.36;39.88;95091.47;5005779;28;10565;-62
2022/12/19 00:12:18;;;;;;;;;;;;;;;25.35;40.12;95089.97;5007446;28;7244;-63
2022/12/19 00:14:49;;;;;;;;;;;;;;;25.37;40.42;95091.00;5007489;28;7076;-62
2022/12/19 00:17:14;;;;;;;;;;;;;;;25.34;40.45;95083.72;5006797;28;7036;-62
2022/12/19 00:19:40;;;;;;;;;;;;;;;25.34;40.73;95082.94;4969641;28;8919;-63
2022/12/19 00:22:06;;;;;;;;;;;;;;;25.35;39.80;95090.75;4993863;28;7140;-62
2022/12/19 00:24:34;;;;;;;;;;;;;;;25.31;40.69;95094.97;4989873;28;7387;-62
2022/12/19 00:27:00;;;;;;;;;;;;;;;25.34;39.95;95100.25;5031459;28;7307;-62
2022/12/19 00:29:29;;;;;;;;;;;;;;;25.34;39.97;95085.72;5036014;28;7026;-63
2022/12/19 00:31:59;;;;;;;;;;;;;;;25.35;39.55;95084.47;5045721;28;8298;-62
2022/12/19 00:34:30;;;;;;;;;;;;;;;25.35;39.79;95076.22;5066512;28;7211;-62
2022/12/19 00:37:04;;;;;;;;;;;;;;;25.36;39.59;95070.19;5071007;28;7291;-62
2022/12/19 00:39:35;;;;;;;;;;;;;;;25.35;40.30;95063.22;5072980;28;7799;-62
2022/12/19 00:42:07;;;;;;;;;;;;;;;25.36;40.13;95083.22;5043635;28;7252;-62
2022/12/19 00:45:08;;;;;;;;;;;;;;;25.35;39.64;95088.00;5055009;28;9139;-62
2022/12/19 00:47:42;;;;;;;;;;;;;;;25.35;39.98;95081.72;4985891;28;8412;-63
2022/12/19 00:50:12;;;;;;;;;;;;;;;25.35;39.90;95078.97;4981563;28;7114;-62
2022/12/19 00:52:56;;;;;;;;;;;;;;;25.33;39.79;95068.44;4973378;28;7315;-62
2022/12/19 00:55:32;;;;;;;;;;;;;;;25.35;40.00;95068.72;4967705;28;7235;-62
2022/12/19 00:57:58;;;;;;;;;;;;;;;25.35;39.70;95062.44;4974429;28;7207;-56
2022/12/19 01:00:32;;;;;;;;;;;;;;;25.34;40.52;95078.22;4959151;28;7518;-57
2022/12/19 01:03:07;;;;;;;;;;;;;;;25.34;40.39;95086.47;4990030;28;7171;-57
2022/12/19 01:05:32;;;;;;;;;;;;;;;25.34;39.92;95077.44;4986637;28;7255;-56
2022/12/19 01:08:02;;;;;;;;;;;;;;;25.33;39.25;95078.72;4972383;28;7279;-56
2022/12/19 01:10:29;;;;;;;;;;;;;;;25.32;40.41;95071.69;4969772;28;7266;-57
2022/12/19 01:12:59;;;;;;;;;;;;;;;25.31;40.01;95068.19;4991951;28;7031;-57
2022/12/19 01:15:26;;;;;;;;;;;;;;;25.31;40.36;95065.44;4993632;28;7833;-56
2022/12/19 01:18:24;;;;;;;;;;;;;;;25.32;40.16;95069.69;4995904;28;7292;-56
2022/12/19 01:20:50;;;;;;;;;;;;;;;25.32;40.49;95057.91;4956322;28;7016;-56
2022/12/19 01:23:16;;;;;;;;;;;;;;;25.31;39.85;95067.44;4994716;28;6855;-56
2022/12/19 01:25:47;;;;;;;;;;;;;;;25.33;39.89;95056.69;5011613;28;7031;-56
2022/12/19 01:28:16;;;;;;;;;;;;;;;25.32;40.10;95041.38;5024095;28;7040;-56
2022/12/19 01:30:42;;;;;;;;;;;;;;;25.33;40.25;95059.44;5027161;28;9062;-57
2022/12/19 01:33:13;;;;;;;;;;;;;;;25.32;39.49;95055.91;5015273;28;7311;-56
2022/12/19 01:35:48;;;;;;;;;;;;;;;25.34;39.92;95063.69;5011769;28;8974;-56
2022/12/19 01:38:34;;;;;;;;;;;;;;;25.34;40.16;95060.94;5021614;28;7203;-56
2022/12/19 01:41:12;;;;;;;;;;;;;;;25.34;40.16;95061.69;4999801;28;7056;-57
2022/12/19 01:44:05;;;;;;;;;;;;;;;25.32;40.48;95061.44;5003346;28;7012;-56
2022/12/19 01:46:44;;;;;;;;;;;;;;;25.32;39.34;95069.69;5008496;28;7112;-56
2022/12/19 01:49:29;;;;;;;;;;;;;;;25.33;39.84;95075.94;5012633;28;7886;-56
2022/12/19 01:51:59;;;;;;;;;;;;;;;25.33;39.75;95070.44;5015362;28;8969;-56
2022/12/19 01:54:31;;;;;;;;;;;;;;;25.32;39.99;95075.19;5025085;28;8654;-56
2022/12/19 01:57:01;;;;;;;;;;;;;;;25.31;39.65;95053.66;5029284;28;7096;-57
2022/12/19 01:59:41;;;;;;;;;;;;;;;25.31;39.79;95048.16;5048246;28;7273;-56
2022/12/19 02:02:17;;;;;;;;;;;;;;;25.32;40.50;95038.63;5053795;28;9323;-56
2022/12/19 02:05:00;;;;;;;;;;;;;;;25.32;39.68;95025.63;5036620;28;8997;-56
2022/12/19 02:07:27;;;;;;;;;;;;;;;25.33;39.81;95002.38;5044374;28;7270;-56
2022/12/19 02:09:56;;;;;;;;;;;;;;;25.33;39.74;95012.63;5047509;28;7278;-56
2022/12/19 02:12:48;;;;;;;;;;;;;;;25.32;39.29;95019.38;5038098;28;7045;-56
2022/12/19 02:15:58;;;;;;;;;;;;;;;25.32;39.48;95033.88;4933880;28;7081;-57
2022/12/19 02:18:54;;;;;;;;;;;;;;;25.32;39.72;95042.16;4950157;29;7449;-62
2022/12/19 02:21:41;;;;;;;;;;;;;;;25.31;40.22;95043.41;4927733;29;7044;-62
2022/12/19 02:24:30;;;;;;;;;;;;;;;25.32;39.46;95057.91;4936541;29;7580;-62
2022/12/19 02:27:24;;;;;;;;;;;;;;;25.32;39.99;95050.41;4947532;29;7280;-62
2022/12/19 02:29:55;;;;;;;;;;;;;;;25.32;40.42;95049.66;4950704;28;7344;-62
2022/12/19 02:32:47;;;;;;;;;;;;;;;25.32;39.39;95044.91;4941549;29;7003;-63
2022/12/19 02:35:45;;;;;;;;;;;;;;;25.32;40.14;95042.16;4935047;28;10885;-62
2022/12/19 02:38:43;;;;;;;;;;;;;;;25.33;40.22;95026.38;4935390;28;9504;-62
2022/12/19 02:41:42;;;;;;;;;;;;;;;25.32;40.21;95028.38;4945891;29;9597;-62
2022/12/19 02:44:29;;;;;;;;;;;;;;;25.32;39.90;95020.13;4948335;29;7290;-62
2022/12/19 02:47:08;;;;;;;;;;;;;;;25.32;39.22;95002.84;4927712;29;7148;-62
2022/12/19 02:50:03;;;;;;;;;;;;;;;25.32;40.31;95030.38;4947522;28;7026;-63
2022/12/19 02:52:37;;;;;;;;;;;;;;;25.33;39.42;95007.13;4926849;28;7268;-62
2022/12/19 02:55:12;;;;;;;;;;;;;;;25.32;39.86;95013.84;4967575;28;7227;-62
2022/12/19 02:57:48;;;;;;;;;;;;;;;25.33;40.14;95040.16;4966624;28;7149;-62
2022/12/19 03:00:43;;;;;;;;;;;;;;;25.32;40.15;95025.63;5001405;28;7053;-62
2022/12/19 03:03:52;;;;;;;;;;;;;;;25.34;39.71;95036.91;4987890;28;7730;-62
2022/12/19 03:06:41;;;;;;;;;;;;;;;25.34;40.07;95039.66;4987499;28;8993;-63
2022/12/19 03:09:26;;;;;;;;;;;;;;;25.34;39.39;95038.91;4984798;28;7277;-62
2022/12/19 03:12:10;;;;;;;;;;;;;;;25.33;39.74;95045.66;4996856;28;7062;-62
2022/12/19 03:14:36;;;;;;;;;;;;;;;25.34;40.23;95058.16;4981431;28;7029;-63
2022/12/19 03:17:07;;;;;;;;;;;;;;;25.33;39.56;95065.69;4986867;28;7034;-62
2022/12/19 03:19:38;;;;;;;;;;;;;;;25.34;39.98;95066.44;4988080;28;7312;-63
2022/12/19 03:22:06;;;;;;;;;;;;;;;25.34;39.50;95074.69;4969842;28;7117;-64
2022/12/19 03:24:32;;;;;;;;;;;;;;;25.34;39.47;95072.69;4968622;28;7015;-63
2022/12/19 03:27:09;;;;;;;;;;;;;;;25.33;40.15;95071.22;5001456;28;7252;-63
2022/12/19 03:30:00;;;;;;;;;;;;;;;25.32;39.86;95066.16;5058025;28;9132;-63
2022/12/19 03:32:42;;;;;;;;;;;;;;;25.31;39.38;95070.19;5042877;28;6999;-63
2022/12/19 03:35:34;;;;;;;;;;;;;;;25.33;39.79;95070.44;5041786;28;7057;-63
2022/12/19 03:38:14;;;;;;;;;;;;;;;25.34;39.81;95060.94;5049348;28;7499;-62
2022/12/19 03:41:10;;;;;;;;;;;;;;;25.33;39.20;95073.19;5045953;28;9135;-62
2022/12/19 03:43:43;;;;;;;;;;;;;;;25.33;39.40;95068.44;4991689;28;7119;-62
2022/12/19 03:46:26;;;;;;;;;;;;;;;25.33;39.87;95070.44;4994805;28;7100;-63
2022/12/19 03:48:57;;;;;;;;;;;;;;;25.33;39.48;95062.19;4998252;28;7540;-63
2022/12/19 03:51:44;;;;;;;;;;;;;;;25.34;39.09;95058.16;5006274;28;8296;-63
2022/12/19 03:54:27;;;;;;;;;;;;;;;25.34;39.19;95061.69;4990824;28;7043;-62
2022/12/19 03:57:26;;;;;;;;;;;;;;;25.33;40.06;95051.94;5002842;28;8664;-62
2022/12/19 04:00:15;;;;;;;;;;;;;;;25.32;39.44;95053.16;5014292;28;7048;-62
2022/12/19 04:02:56;;;;;;;;;;;;;;;25.33;39.56;95048.41;4994097;28;7028;-63
2022/12/19 04:05:31;;;;;;;;;;;;;;;25.34;39.23;95055.41;5008820;28;7041;-63
2022/12/19 04:08:08;;;;;;;;;;;;;;;25.33;39.42;95048.41;4992099;28;7421;-63
2022/12/19 04:10:43;;;;;;;;;;;;;;;25.31;39.34;95034.41;5008742;28;8306;-62
2022/12/19 04:13:15;;;;;;;;;;;;;;;25.33;39.49;95048.41;5003502;28;7389;-62
2022/12/19 04:15:45;;;;;;;;;;;;;;;25.32;39.47;95047.66;5006362;28;7575;-62
2022/12/19 04:18:13;;;;;;;;;;;;;;;25.33;39.97;95053.94;4993493;28;8993;-62
2022/12/19 04:20:48;;;;;;;;;;;;;;;25.31;39.26;95032.41;5026548;28;7366;-62
2022/12/19 04:23:21;;;;;;;;;;;;;;;25.32;40.08;95044.16;5044183;28;7189;-62
2022/12/19 04:25:55;;;;;;;;;;;;;;;25.29;40.11;95015.59;5043303;28;7246;-62
2022/12/19 04:28:35;;;;;;;;;;;;;;;25.30;40.08;95030.88;5044522;28;7290;-62
2022/12/19 04:31:02;;;;;;;;;;;;;;;25.31;39.61;95009.63;5051220;28;9858;-62
2022/12/19 04:33:35;;;;;;;;;;;;;;;25.32;40.15;95035.88;5050131;28;7015;-62
2022/12/19 04:36:06;;;;;;;;;;;;;;;25.30;40.15;95028.13;5049698;28;7618;-62
2022/12/19 04:38:33;;;;;;;;;;;;;;;25.32;39.48;95033.13;5049981;28;6884;-62
2022/12/19 04:41:03;;;;;;;;;;;;;;;25.30;39.06;95032.88;5045036;28;7315;-62
2022/12/19 04:43:33;;;;;;;;;;;;;;;25.32;39.39;95033.88;5046447;28;7116;-61
2022/12/19 04:46:05;;;;;;;;;;;;;;;25.32;39.68;95030.38;5039368;28;7057;-61
2022/12/19 04:48:35;;;;;;;;;;;;;;;25.32;39.37;95019.38;5054196;28;7359;-62
2022/12/19 04:51:01;;;;;;;;;;;;;;;25.29;39.71;95014.88;5045125;28;7338;-61
2022/12/19 04:53:38;;;;;;;;;;;;;;;25.29;39.31;95009.34;5039330;28;7111;-63
2022/12/19 04:56:08;;;;;;;;;;;;;;;25.32;39.64;94994.59;5039528;28;6943;-62
2022/12/19 04:58:36;;;;;;;;;;;;;;;25.32;39.18;95019.38;5078045;28;8482;-62
2022/12/19 05:01:17;;;;;;;;;;;;;;;25.32;39.78;95013.84;5041603;28;7422;-62
2022/12/19 05:04:11;;;;;;;;;;;;;;;25.33;39.43;95009.88;5051242;28;9463;-62
2022/12/19 05:06:47;;;;;;;;;;;;;;;25.33;39.25;95012.63;5014111;28;10660;-62
2022/12/19 05:09:28;;;;;;;;;;;;;;;25.33;39.97;95023.63;5010725;28;7040;-62
2022/12/19 05:11:56;;;;;;;;;;;;;;;25.34;39.02;95016.88;5000865;28;9773;-62
2022/12/19 05:14:26;;;;;;;;;;;;;;;25.32;39.75;95008.34;5010495;28;7041;-62
2022/12/19 05:16:52;;;;;;;;;;;;;;;25.31;39.46;95002.13;4993684;28;7307;-61
2022/12/19 05:19:28;;;;;;;;;;;;;;;25.32;39.44;95013.84;4988934;28;7780;-62
2022/12/19 05:21:54;;;;;;;;;;;;;;;25.35;39.33;95016.41;4992957;28;9400;-61
2022/12/19 05:24:22;;;;;;;;;;;;;;;25.35;39.76;95013.63;5008976;28;8987;-61
2022/12/19 05:26:48;;;;;;;;;;;;;;;25.32;39.67;95008.34;5005531;28;6907;-61
2022/12/19 05:29:15;;;;;;;;;;;;;;;25.34;39.24;95016.88;4990757;28;9008;-62
2022/12/19 05:31:53;;;;;;;;;;;;;;;25.34;39.83;95014.13;4991815;28;9875;-61
2022/12/19 05:34:27;;;;;;;;;;;;;;;25.31;40.13;95023.38;4968904;28;7442;-61
2022/12/19 05:37:06;;;;;;;;;;;;;;;25.33;42.74;95007.88;4987401;28;7204;-62
2022/12/19 05:39:52;;;;;;;;;;;;;;;25.39;41.27;95011.41;4992785;28;8489;-62
2022/12/19 05:42:21;;;;;;;;;;;;;;;25.41;40.04;95008.91;4997045;28;9196;-63
2022/12/19 05:44:49;;;;;;;;;;;;;;;25.45;39.99;95013.47;5043711;28;7038;-63
2022/12/19 05:47:15;;;;;;;;;;;;;;;25.44;40.48;95009.94;5045867;28;7097;-63
2022/12/19 05:49:42;;;;;;;;;;;;;;;25.45;40.41;95011.44;5040059;28;7029;-63
2022/12/19 05:52:08;;;;;;;;;;;;;;;25.45;40.53;95005.19;5047003;28;7274;-63
2022/12/19 05:54:41;;;;;;;;;;;;;;;25.42;40.32;95002.16;5048231;28;7032;-63
2022/12/19 05:57:09;;;;;;;;;;;;;;;25.46;40.99;95001.19;5060299;28;9397;-63
2022/12/19 05:59:47;;;;;;;;;;;;;;;25.46;40.63;95010.19;5040165;28;7080;-61
2022/12/19 06:02:13;;;;;;;;;;;;;;;25.46;40.24;95003.94;5050051;28;7188;-63
2022/12/19 06:04:40;;;;;;;;;;;;;;;25.50;41.43;94994.19;5041317;28;9360;-62
2022/12/19 06:07:09;;;;;;;;;;;;;;;25.56;40.07;94999.69;5042808;28;9154;-62
2022/12/19 06:09:43;;;;;;;;;;;;;;;25.57;40.38;95010.25;5055517;28;7783;-63
2022/12/19 06:12:14;;;;;;;;;;;;;;;25.56;39.94;95018.97;5042759;28;7020;-63
2022/12/19 06:14:45;;;;;;;;;;;;;;;25.59;40.30;95007.75;5045752;28;7248;-62
2022/12/19 06:17:13;;;;;;;;;;;;;;;25.55;39.79;95000.97;5050815;28;9637;-62
2022/12/19 06:19:44;;;;;;;;;;;;;;;25.56;40.49;94999.69;5044103;28;7343;-61
2022/12/19 06:22:11;;;;;;;;;;;;;;;25.55;39.21;95010.00;5044806;28;9095;-62
2022/12/19 06:24:37;;;;;;;;;;;;;;;25.56;39.97;95027.25;5042795;28;7071;-61
2022/12/19 06:27:03;;;;;;;;;;;;;;;25.56;39.60;95027.25;5037431;28;7052;-62
2022/12/19 06:29:28;;;;;;;;;;;;;;;25.53;39.52;95029.00;5076086;28;7051;-62
2022/12/19 06:31:57;;;;;;;;;;;;;;;25.50;40.77;95021.72;5043674;28;7360;-63
2022/12/19 06:34:24;;;;;;;;;;;;;;;25.51;40.33;95037.03;5044549;28;7321;-62
2022/12/19 06:36:59;;;;;;;;;;;;;;;25.54;40.17;95024.25;5039244;28;7277;-62
2022/12/19 06:39:38;;;;;;;;;;;;;;;25.56;40.15;95019.75;5049621;28;7210;-62
2022/12/19 06:42:23;;;;;;;;;;;;;;;25.55;39.95;95004.47;5046003;28;7691;-62
2022/12/19 06:44:54;;;;;;;;;;;;;;;25.58;40.11;95008.97;5076344;28;7053;-62
2022/12/19 06:47:50;;;;;;;;;;;;;;;25.59;39.56;95024.28;5058434;28;7108;-62
2022/12/19 06:50:47;;;;;;;;;;;;;;;25.60;40.30;95017.50;5009339;28;7664;-62
2022/12/19 06:53:18;;;;;;;;;;;;;;;25.62;39.85;95006.75;4918752;29;7274;-63
2022/12/19 06:55:54;;;;;;;;;;;;;;;25.64;39.96;95003.50;4930712;28;7084;-62
2022/12/19 06:58:27;;;;;;;;;;;;;;;25.66;39.70;94999.00;4934111;29;9397;-63
2022/12/19 07:01:06;;;;;;;;;;;;;;;25.66;39.23;95015.53;4924185;28;8243;-63
2022/12/19 07:03:49;;;;;;;;;;;;;;;25.67;39.45;95005.25;4916706;29;9441;-63
2022/12/19 07:06:16;;;;;;;;;;;;;;;25.66;39.75;94999.00;4936930;28;7217;-63
2022/12/19 07:08:42;;;;;;;;;;;;;;;25.68;39.84;95004.78;4932500;28;8351;-63
2022/12/19 07:11:08;;;;;;;;;;;;;;;25.66;39.75;95009.28;4928223;28;7226;-62
2022/12/19 07:13:38;;;;;;;;;;;;;;;25.64;39.41;95009.78;4941904;28;7360;-62
2022/12/19 07:16:07;;;;;;;;;;;;;;;25.64;38.85;95001.50;4927431;28;7193;-62
2022/12/19 07:18:41;;;;;;;;;;;;;;;25.62;38.78;94997.75;4920514;28;7194;-62
2022/12/19 07:21:10;;;;;;;;;;;;;;;25.58;38.06;94992.44;4917741;29;7291;-62
2022/12/19 07:23:40;;;;;;;;;;;;;;;25.57;38.53;94990.97;4921856;28;7297;-62
2022/12/19 07:26:07;;;;;;;;;;;;;;;25.56;38.51;95011.47;4917411;28;9300;-62
2022/12/19 07:28:36;;;;;;;;;;;;;;;25.57;38.50;95001.97;4971360;28;7368;-62
2022/12/19 07:31:18;;;;;;;;;;;;;;;25.54;39.29;95005.72;5075677;28;7035;-64
2022/12/19 07:33:46;;;;;;;;;;;;;;;25.55;38.68;95003.72;5056553;28;9573;-64
2022/12/19 07:36:16;;;;;;;;;;;;;;;25.54;38.89;95007.72;5048156;28;7140;-62
2022/12/19 07:38:41;;;;;;;;;;;;;;;25.56;39.38;95011.47;5057579;28;8836;-62
2022/12/19 07:41:49;;;;;;;;;;;;;;;25.57;38.56;95012.25;5046036;28;7042;-62
2022/12/19 07:44:15;;;;;;;;;;;;;;;25.56;39.37;95017.00;4999413;28;7872;-62
2022/12/19 07:46:52;;;;;;;;;;;;;;;25.56;38.81;95018.97;5002615;28;7254;-62
2022/12/19 07:49:18;;;;;;;;;;;;;;;25.56;39.74;95014.25;4996093;28;8659;-62
2022/12/19 07:51:53;;;;;;;;;;;;;;;25.56;39.05;95007.97;4990141;28;6979;-63
2022/12/19 07:54:21;;;;;;;;;;;;;;;25.58;39.76;95008.97;4985445;28;7230;-63
2022/12/19 07:56:47;;;;;;;;;;;;;;;25.57;39.62;95012.25;5297203;22;7700;-59
2022/12/19 07:59:15;;;;;;;;;;;;;;;25.54;39.54;95022.25;5015653;28;8709;-56
2022/12/19 08:01:41;;;;;;;;;;;;;;;25.58;39.53;95022.03;5236690;23;7038;-70
2022/12/19 08:04:07;;;;;;;;;;;;;;;25.58;39.66;95031.03;5013370;28;8588;-70
2022/12/19 08:06:33;;;;;;;;;;;;;;;25.57;39.17;95018.50;5012501;28;7012;-70
2022/12/19 08:08:59;;;;;;;;;;;;;;;25.56;39.13;95022.50;5022927;28;7249;-70
2022/12/19 08:11:32;;;;;;;;;;;;;;;25.61;39.68;95021.78;5013966;28;7409;-69
2022/12/19 08:14:00;;;;;;;;;;;;;;;25.58;39.18;95011.75;5012373;28;7040;-70
2022/12/19 08:16:26;;;;;;;;;;;;;;;25.58;39.28;95014.50;5010275;28;7286;-70
2022/12/19 08:19:02;;;;;;;;;;;;;;;25.59;39.42;95010.50;5028992;28;7061;-70
2022/12/19 08:21:32;;;;;;;;;;;;;;;25.60;39.74;95023.00;5013081;28;7638;-70
2022/12/19 08:24:04;;;;;;;;;;;;;;;25.60;39.63;95025.03;5029931;28;9330;-70
2022/12/19 08:26:36;;;;;;;;;;;;;;;25.58;39.51;95028.25;5027145;28;8977;-70
2022/12/19 08:29:12;;;;;;;;;;;;;;;25.57;39.44;95035.03;5012649;28;7270;-71
2022/12/19 08:31:50;;;;;;;;;;;;;;;25.59;39.38;95038.03;5030029;28;7088;-70
2022/12/19 08:34:28;;;;;;;;;;;;;;;25.58;38.90;95041.31;5029238;28;7318;-70
2022/12/19 08:37:00;;;;;;;;;;;;;;;25.59;39.29;95043.56;5013613;28;7438;-70
2022/12/19 08:39:28;;;;;;;;;;;;;;;25.61;39.14;95049.31;5013456;28;7431;-70
2022/12/19 08:42:14;;;;;;;;;;;;;;;25.63;39.71;95057.09;5013235;28;7202;-71
2022/12/19 08:44:40;;;;;;;;;;;;;;;25.61;38.77;95048.56;5026929;28;7578;-70
2022/12/19 08:47:06;;;;;;;;;;;;;;;25.60;39.51;95042.28;5012535;28;7258;-70
2022/12/19 08:49:47;;;;;;;;;;;;;;;25.60;39.33;95047.06;5029378;28;7580;-72
2022/12/19 08:52:30;;;;;;;;;;;;;;;25.60;39.51;95049.81;5009471;28;7036;-70
2022/12/19 08:55:09;;;;;;;;;;;;;;;25.61;39.57;95043.81;5027039;28;8929;-70
2022/12/19 08:57:40;;;;;;;;;;;;;;;25.63;38.88;95033.06;5029801;28;8966;-70
2022/12/19 09:00:16;;;;;;;;;;;;;;;25.64;39.13;95031.81;5028725;28;7025;-71
2022/12/19 09:02:44;;;;;;;;;;;;;;;25.63;39.23;95021.28;4998654;28;7274;-71
2022/12/19 09:05:10;;;;;;;;;;;;;;;25.62;39.04;95020.50;5008292;28;7143;-71
2022/12/19 09:07:36;;;;;;;;;;;;;;;25.65;39.63;95024.28;4993167;28;8740;-70
2022/12/19 09:10:03;;;;;;;;;;;;;;;25.65;39.17;95025.03;4992653;28;7626;-70
2022/12/19 09:12:37;;;;;;;;;;;;;;;25.64;38.96;95020.03;4995958;28;7319;-70
2022/12/19 09:15:14;;;;;;;;;;;;;;;25.69;38.97;95017.28;5000623;28;7277;-70
2022/12/19 09:18:01;;;;;;;;;;;;;;;25.71;39.43;95019.56;5002747;28;7275;-70
2022/12/19 09:20:27;;;;;;;;;;;;;;;25.70;39.50;95038.09;5009268;28;7483;-70
2022/12/19 09:22:55;;;;;;;;;;;;;;;25.71;39.75;95039.59;4993502;28;7264;-70
2022/12/19 09:25:29;;;;;;;;;;;;;;;25.71;38.95;95050.59;4992231;28;8220;-70
2022/12/19 09:27:59;;;;;;;;;;;;;;;25.69;38.94;95058.63;4992506;28;7348;-71
2022/12/19 09:30:24;;;;;;;;;;;;;;;25.70;39.65;95064.88;4993166;28;7221;-68
2022/12/19 09:32:54;;;;;;;;;;;;;;;25.68;39.21;95054.38;4993074;28;7578;-70
2022/12/19 09:35:23;;;;;;;;;;;;;;;25.67;39.12;95050.09;5002764;28;7425;-70
2022/12/19 09:37:56;;;;;;;;;;;;;;;25.68;39.32;95050.84;4987553;28;7172;-70
2022/12/19 09:40:29;;;;;;;;;;;;;;;25.67;39.67;95054.84;4999228;28;8204;-70
2022/12/19 09:43:24;;;;;;;;;;;;;;;25.67;39.96;95052.84;4991181;28;7907;-70
2022/12/19 09:46:17;;;;;;;;;;;;;;;25.66;39.06;95045.84;4945551;28;7355;-70
2022/12/19 09:48:53;;;;;;;;;;;;;;;25.65;39.92;95040.81;4952247;28;7133;-70
2022/12/19 09:52:04;;;;;;;;;;;;;;;25.66;39.56;95053.34;4938250;28;7313;-71
2022/12/19 09:54:52;;;;;;;;;;;;;;;25.66;39.25;95036.81;4947642;28;7209;-71
2022/12/19 10:01:23;;;;;;;;;;;;;;;25.67;39.98;95033.56;4927597;29;7061;-70
2022/12/19 10:04:11;;;;;;;;;;;;;;;25.70;40.09;95035.34;4916456;29;8471;-71
2022/12/19 10:06:40;;;;;;;;;;;;;;;25.70;39.70;95045.59;4906862;29;7429;-70
2022/12/19 10:09:16;;;;;;;;;;;;;;;25.70;39.57;95040.09;4915894;29;7439;-71
2022/12/19 10:11:51;;;;;;;;;;;;;;;25.69;39.61;95047.59;4928003;29;7230;-71
2022/12/19 10:14:37;;;;;;;;;;;;;;;25.71;39.33;95042.34;4927202;29;7432;-68
2022/12/19 10:17:51;;;;;;;;;;;;;;;25.73;39.65;95044.63;4914749;29;7120;-70
2022/12/19 10:20:36;;;;;;;;;;;;;;;25.69;40.13;95033.81;4849246;29;9439;-70
2022/12/19 10:23:36;;;;;;;;;;;;;;;25.72;40.00;95032.84;4828450;29;7280;-69
2022/12/19 10:26:32;;;;;;;;;;;;;;;25.74;39.17;95029.56;4837854;29;7146;-70
2022/12/19 10:29:17;;;;;;;;;;;;;;;25.75;39.66;95033.84;4849364;29;9074;-70
2022/12/19 10:32:03;;;;;;;;;;;;;;;25.76;40.17;95030.59;4863483;29;7288;-70
2022/12/19 10:34:42;;;;;;;;;;;;;;;25.77;40.10;95029.34;4838659;29;7271;-71
2022/12/19 10:37:42;;;;;;;;;;;;;;;25.78;39.97;95025.34;4872562;29;9274;-70
2022/12/19 10:40:13;;;;;;;;;;;;;;;25.78;39.27;95019.81;4887708;29;7802;-71
2022/12/19 10:43:16;;;;;;;;;;;;;;;25.81;40.35;95024.34;4879319;29;9032;-71
2022/12/19 10:45:50;;;;;;;;;;;;;;;25.83;40.34;95023.84;4894899;29;7280;-71
2022/12/19 10:48:19;;;;;;;;;;;;;;;25.81;40.01;95023.59;4887605;29;7298;-72
2022/12/19 10:50:55;;;;;;;;;;;;;;;25.83;39.70;95024.59;4895188;29;7235;-69
2022/12/19 10:53:28;;;;;;;;;;;;;;;25.85;39.95;95022.09;4900335;29;7474;-70
2022/12/19 10:55:59;;;;;;;;;;;;;;;25.80;40.18;95003.53;4902917;28;10449;-71
2022/12/19 10:58:44;;;;;;;;;;;;;;;25.79;40.21;95004.03;5001798;28;7273;-70
2022/12/19 11:01:23;;;;;;;;;;;;;;;25.81;40.01;94996.03;4992736;28;7076;-71
2022/12/19 11:04:12;;;;;;;;;;;;;;;25.79;39.73;95002.06;4988282;28;6967;-71
2022/12/19 11:06:41;;;;;;;;;;;;;;;25.79;39.55;94996.53;4989170;28;9311;-70
2022/12/19 11:09:56;;;;;;;;;;;;;;;25.79;40.09;94996.53;4991614;28;9584;-71
2022/12/19 11:12:27;;;;;;;;;;;;;;;25.79;39.81;94991.03;4992675;28;7146;-70
2022/12/19 11:15:14;;;;;;;;;;;;;;;25.78;39.35;94995.03;4992940;28;7349;-71
2022/12/19 11:17:41;;;;;;;;;;;;;;;25.81;39.75;94990.53;5007745;28;7058;-71
2022/12/19 11:21:15;;;;;;;;;;;;;;;25.81;39.48;94996.03;4992009;28;9055;-71
2022/12/19 11:23:53;;;;;;;;;;;;;;;25.79;39.38;94982.00;4907733;29;7347;-71
2022/12/19 11:26:44;;;;;;;;;;;;;;;25.82;39.97;94983.75;4886894;29;7041;-71
2022/12/19 11:29:24;;;;;;;;;;;;;;;25.82;39.81;94983.75;4905554;29;7038;-70
2022/12/19 11:32:01;;;;;;;;;;;;;;;25.81;40.37;94974.00;4914657;29;9027;-71
2022/12/19 11:34:39;;;;;;;;;;;;;;;25.82;39.97;94970.72;4909622;29;7122;-72
2022/12/19 11:37:38;;;;;;;;;;;;;;;25.83;40.33;94968.72;4899820;29;7268;-71
2022/12/19 11:40:24;;;;;;;;;;;;;;;25.87;40.14;94963.72;4916634;29;7875;-70
2022/12/19 11:43:07;;;;;;;;;;;;;;;25.88;40.13;94962.47;4916500;29;7600;-71
2022/12/19 11:45:38;;;;;;;;;;;;;;;25.88;40.05;94962.47;4914562;29;7320;-71
2022/12/19 11:48:18;;;;;;;;;;;;;;;25.88;39.39;94968.72;4907942;29;7006;-70
2022/12/19 11:51:03;;;;;;;;;;;;;;;25.86;39.62;94960.22;4877564;29;7073;-70
2022/12/19 11:53:46;;;;;;;;;;;;;;;25.85;39.41;94953.22;4909505;29;7050;-70
2022/12/19 11:56:30;;;;;;;;;;;;;;;25.89;40.41;94955.69;4919758;28;8364;-71
2022/12/19 11:59:24;;;;;;;;;;;;;;;25.89;39.70;94963.97;4949214;28;7236;-71
2022/12/19 12:05:46;;;;;;;;;;;;;;;25.93;39.63;94964.47;4897369;29;8910;-71
2022/12/19 12:08:29;;;;;;;;;;;;;;;25.91;39.85;94956.72;4879567;29;7274;-70
2022/12/19 12:11:09;;;;;;;;;;;;;;;25.92;40.05;94962.97;4881131;29;7284;-71
2022/12/19 12:14:19;;;;;;;;;;;;;;;25.93;39.53;94961.72;4887408;29;6950;-71
2022/12/19 12:17:22;;;;;;;;;;;;;;;25.94;39.69;94950.22;4875054;29;7267;-71
2022/12/19 12:20:10;;;;;;;;;;;;;;;25.99;39.79;94954.97;4890751;29;7051;-72
2022/12/19 12:22:54;;;;;;;;;;;;;;;26.00;40.35;94959.22;4889258;29;7488;-70
2022/12/19 12:25:29;;;;;;;;;;;;;;;26.00;39.57;94952.97;4894787;29;9996;-71
2022/12/19 12:28:01;;;;;;;;;;;;;;;26.00;39.68;94948.22;4894961;29;8449;-70
2022/12/19 12:30:46;;;;;;;;;;;;;;;26.03;39.40;94944.44;4886031;29;7036;-71
2022/12/19 12:33:26;;;;;;;;;;;;;;;26.04;39.39;94948.72;4876916;29;7309;-70
2022/12/19 12:36:41;;;;;;;;;;;;;;;26.06;38.71;94948.97;4878214;29;7498;-69
2022/12/19 12:39:26;;;;;;;;;;;;;;;26.05;39.75;94946.72;4807883;29;8866;-70
2022/12/19 12:42:04;;;;;;;;;;;;;;;26.02;39.36;94948.47;4846672;29;8092;-71
2022/12/19 12:44:38;;;;;;;;;;;;;;;25.98;39.00;94936.94;4895508;29;7033;-70
2022/12/19 12:47:17;;;;;;;;;;;;;;;26.01;39.15;94940.69;4894185;29;7596;-70
2022/12/19 12:50:07;;;;;;;;;;;;;;;26.00;39.24;94941.94;4896092;29;8801;-70
2022/12/19 12:53:12;;;;;;;;;;;;;;;26.00;38.99;94944.69;4882575;29;9199;-69
2022/12/19 12:55:49;;;;;;;;;;;;;;;26.01;39.00;94944.19;4812534;29;7297;-61
2022/12/19 12:59:03;;;;;;;;;;;;;;;26.04;39.00;94939.69;4821338;29;7277;-61
2022/12/19 13:01:36;;;;;;;;;;;;;;;26.04;38.75;94945.19;4806843;29;7105;-61
2022/12/19 13:04:11;;;;;;;;;;;;;;;26.04;39.13;94940.44;4821570;29;7226;-61
2022/12/19 13:06:58;;;;;;;;;;;;;;;26.03;38.97;94938.19;4822279;29;7147;-61
2022/12/19 13:09:35;;;;;;;;;;;;;;;25.98;39.33;94934.19;4862479;29;6988;-61
2022/12/19 13:15:33;;;;;;;;;;;;;;;25.94;39.43;94930.91;4943200;28;9137;-61
2022/12/19 13:18:36;;;;;;;;;;;;;;;25.94;39.94;94930.91;4929981;29;7074;-61
2022/12/19 13:21:07;;;;;;;;;;;;;;;25.91;39.52;94918.13;4895496;29;7461;-61
2022/12/19 13:23:46;;;;;;;;;;;;;;;25.90;39.71;94924.88;4880221;29;7024;-61
2022/12/19 13:26:48;;;;;;;;;;;;;;;25.90;39.42;94918.63;4914876;28;9115;-61
2022/12/19 13:29:57;;;;;;;;;;;;;;;25.90;39.84;94913.84;4935390;28;7264;-61
2022/12/19 13:33:00;;;;;;;;;;;;;;;25.90;39.79;94922.13;4931238;28;7439;-61
2022/12/19 13:35:28;;;;;;;;;;;;;;;25.91;40.09;94925.63;4917401;29;8987;-61
2022/12/19 13:38:19;;;;;;;;;;;;;;;25.90;40.03;94933.16;4917538;29;7114;-61
2022/12/19 13:40:59;;;;;;;;;;;;;;;25.90;39.20;94924.16;4921725;29;9245;-61
2022/12/19 13:43:47;;;;;;;;;;;;;;;25.89;39.32;94917.88;4913258;29;7197;-61
2022/12/19 13:46:36;;;;;;;;;;;;;;;25.88;39.42;94919.13;4902287;29;9023;-61
2022/12/19 13:49:23;;;;;;;;;;;;;;;25.90;40.27;94908.34;4914926;29;7260;-60
2022/12/19 13:51:58;;;;;;;;;;;;;;;25.86;39.55;94902.34;4913809;29;7049;-61
2022/12/19 13:54:29;;;;;;;;;;;;;;;25.93;39.37;94906.59;4913505;29;8661;-61
2022/12/19 13:57:26;;;;;;;;;;;;;;;25.93;39.69;94915.63;4925523;29;6982;-61
2022/12/19 14:00:08;;;;;;;;;;;;;;;25.96;39.52;94922.91;4915696;29;7291;-60
2022/12/19 14:02:55;;;;;;;;;;;;;;;25.98;39.95;94914.88;4933388;28;7188;-61